createdAt,value
2023-05-16T00:02:01.066Z,2.03
2023-05-16T00:04:28.915Z,1.70
2023-05-16T00:06:56.683Z,1.98
2023-05-16T00:09:24.452Z,1.60
2023-05-16T00:11:52.455Z,1.48
2023-05-16T00:14:20.675Z,2.33
2023-05-16T00:16:50.582Z,1.95
2023-05-16T00:19:18.837Z,1.92
2023-05-16T00:21:46.980Z,2.60
2023-05-16T00:24:14.972Z,1.90
2023-05-16T00:26:42.678Z,1.65
2023-05-16T00:29:10.445Z,1.67
2023-05-16T00:31:38.153Z,1.65
2023-05-16T00:34:07.479Z,1.92
2023-05-16T00:36:35.707Z,2.03
2023-05-16T00:39:04.236Z,1.77
2023-05-16T00:41:32.343Z,1.88
2023-05-16T00:44:00.117Z,1.88
2023-05-16T00:46:27.904Z,2.03
2023-05-16T00:48:55.841Z,1.75
2023-05-16T00:51:25.927Z,2.22
2023-05-16T00:53:55.884Z,1.88
2023-05-16T00:56:24.860Z,1.83
2023-05-16T00:58:52.845Z,1.95
2023-05-16T01:01:24.659Z,2.00
2023-05-16T01:03:53.086Z,2.10
2023-05-16T01:06:21.159Z,1.83
2023-05-16T01:08:51.058Z,1.90
2023-05-16T01:11:29.271Z,1.75
2023-05-16T01:14:12.378Z,2.15
2023-05-16T01:16:52.404Z,1.70
2023-05-16T01:19:51.902Z,2.17
2023-05-16T01:22:37.403Z,1.92
2023-05-16T01:25:23.221Z,2.17
2023-05-16T01:27:53.827Z,2.30
2023-05-16T01:30:22.289Z,2.17
2023-05-16T01:32:50.110Z,2.35
2023-05-16T01:35:19.378Z,2.15
2023-05-16T01:37:58.098Z,1.75
2023-05-16T01:40:35.459Z,1.42
2023-05-16T01:43:14.135Z,1.77
2023-05-16T01:45:52.784Z,2.22
2023-05-16T01:48:28.194Z,2.03
2023-05-16T01:50:58.459Z,2.05
2023-05-16T01:53:32.227Z,1.38
2023-05-16T01:56:03.119Z,1.93
2023-05-16T01:58:36.805Z,1.45
2023-05-16T02:01:06.884Z,2.13
2023-05-16T02:03:35.336Z,2.03
2023-05-16T02:06:03.139Z,2.25
2023-05-16T02:08:32.145Z,2.30
2023-05-16T02:10:59.979Z,1.67
2023-05-16T02:13:27.736Z,1.88
2023-05-16T02:15:56.869Z,1.70
2023-05-16T02:18:24.596Z,1.70
2023-05-16T02:20:52.883Z,1.50
2023-05-16T02:23:20.685Z,1.60
2023-05-16T02:25:49.011Z,2.10
2023-05-16T02:28:16.867Z,1.80
2023-05-16T02:30:44.583Z,1.83
2023-05-16T02:33:13.704Z,1.85
2023-05-16T02:35:41.427Z,2.17
2023-05-16T02:38:10.179Z,1.80
2023-05-16T02:40:37.883Z,2.00
2023-05-16T02:43:05.899Z,2.03
2023-05-16T02:45:33.703Z,1.85
2023-05-16T02:48:01.405Z,1.48
2023-05-16T02:50:30.577Z,1.90
2023-05-16T02:52:59.689Z,2.13
2023-05-16T02:55:27.550Z,2.03
2023-05-16T02:57:55.658Z,1.83
2023-05-16T03:00:23.776Z,1.90
2023-05-16T03:02:51.907Z,2.05
2023-05-16T03:05:20.048Z,1.75
2023-05-16T03:07:49.078Z,2.30
2023-05-16T03:10:17.074Z,2.08
2023-05-16T03:12:45.090Z,2.03
2023-05-16T03:15:12.790Z,1.83
2023-05-16T03:17:40.602Z,1.95
2023-05-16T03:20:11.276Z,2.75
2023-05-16T03:22:40.278Z,1.98
2023-05-16T03:25:10.069Z,2.40
2023-05-16T03:27:37.801Z,2.63
2023-05-16T03:30:07.104Z,2.08
2023-05-16T03:32:34.899Z,2.05
2023-05-16T03:35:03.563Z,1.92
2023-05-16T03:37:31.824Z,2.50
2023-05-16T03:40:00.543Z,2.40
2023-05-16T03:42:29.743Z,3.10
2023-05-16T03:44:57.498Z,2.50
2023-05-16T03:47:25.444Z,3.10
2023-05-16T03:49:56.023Z,2.55
2023-05-16T03:52:23.740Z,2.50
2023-05-16T03:54:51.489Z,2.15
2023-05-16T03:57:19.243Z,2.47
2023-05-16T03:59:48.277Z,2.10
2023-05-16T04:02:18.689Z,2.72
2023-05-16T04:04:46.821Z,2.42
2023-05-16T04:07:15.076Z,2.60
2023-05-16T04:09:43.025Z,2.50
2023-05-16T04:12:10.757Z,2.15
2023-05-16T04:14:39.268Z,2.63
2023-05-16T04:17:08.842Z,3.15
2023-05-16T04:19:36.697Z,3.20
2023-05-16T04:22:04.454Z,2.88
2023-05-16T04:24:32.183Z,2.15
2023-05-16T04:26:59.960Z,2.58
2023-05-16T04:29:27.764Z,2.75
2023-05-16T04:31:55.745Z,2.75
2023-05-16T04:34:27.890Z,2.80
2023-05-16T04:36:56.327Z,2.72
2023-05-16T04:39:24.093Z,2.88
2023-05-16T04:41:52.175Z,2.40
2023-05-16T04:44:19.934Z,2.58
2023-05-16T04:46:47.722Z,2.92
2023-05-16T04:49:15.468Z,2.75
2023-05-16T04:51:44.558Z,2.72
2023-05-16T04:54:12.312Z,2.80
2023-05-16T04:56:40.044Z,2.28
2023-05-16T04:59:07.880Z,2.40
2023-05-16T05:01:35.716Z,2.85
2023-05-16T05:04:03.654Z,2.50
2023-05-16T05:06:31.782Z,3.30
2023-05-16T05:09:00.918Z,2.80
2023-05-16T05:11:28.645Z,2.60
2023-05-16T05:13:56.568Z,2.85
2023-05-16T05:16:24.338Z,2.70
2023-05-16T05:18:52.791Z,3.47
2023-05-16T05:21:21.936Z,3.80
2023-05-16T05:23:50.282Z,3.13
2023-05-16T05:26:19.760Z,2.75
2023-05-16T05:28:53.783Z,2.17
2023-05-16T05:31:25.519Z,2.83
2023-05-16T05:33:53.354Z,2.67
2023-05-16T05:36:21.063Z,3.08
2023-05-16T05:38:48.770Z,2.92
2023-05-16T05:41:16.508Z,2.72
2023-05-16T05:43:45.785Z,2.75
2023-05-16T05:46:13.834Z,2.88
2023-05-16T05:48:41.659Z,2.40
2023-05-16T05:51:09.640Z,2.53
2023-05-16T05:53:37.547Z,2.60
2023-05-16T05:56:05.828Z,2.35
2023-05-16T05:58:33.543Z,2.30
2023-05-16T06:01:02.759Z,2.75
2023-05-16T06:03:30.573Z,2.53
2023-05-16T06:05:58.436Z,2.60
2023-05-16T06:08:26.268Z,2.50
2023-05-16T06:10:54.126Z,2.38
2023-05-16T06:13:21.869Z,2.92
2023-05-16T06:15:52.043Z,2.58
2023-05-16T06:18:21.389Z,2.63
2023-05-16T06:20:49.174Z,2.95
2023-05-16T06:23:18.235Z,1.83
2023-05-16T06:25:46.983Z,2.30
2023-05-16T06:28:14.690Z,3.00
2023-05-16T06:30:42.708Z,3.40
2023-05-16T06:33:10.567Z,2.78
2023-05-16T06:35:40.705Z,2.92
2023-05-16T06:38:08.502Z,3.10
2023-05-16T06:40:37.321Z,3.67
2023-05-16T06:43:05.139Z,2.63
2023-05-16T06:45:33.324Z,3.80
2023-05-16T06:48:01.272Z,3.00
2023-05-16T06:50:29.221Z,3.63
2023-05-16T06:52:58.430Z,3.45
2023-05-16T06:55:26.535Z,3.28
2023-05-16T06:57:54.671Z,2.92
2023-05-16T07:00:23.189Z,3.15
2023-05-16T07:02:50.993Z,3.00
2023-05-16T07:05:18.792Z,2.78
2023-05-16T07:07:47.280Z,3.65
2023-05-16T07:10:16.999Z,3.40
2023-05-16T07:12:44.750Z,3.45
2023-05-16T07:15:12.971Z,3.08
2023-05-16T07:17:40.964Z,3.22
2023-05-16T07:20:13.460Z,3.92
2023-05-16T07:22:41.429Z,4.00
2023-05-16T07:25:12.620Z,2.88
2023-05-16T07:27:44.633Z,2.90
2023-05-16T07:30:14.774Z,3.00
2023-05-16T07:32:43.263Z,2.92
2023-05-16T07:35:13.545Z,3.00
2023-05-16T07:37:42.471Z,3.20
2023-05-16T07:40:11.685Z,3.42
2023-05-16T07:42:40.856Z,3.67
2023-05-16T07:45:09.421Z,6.20
2023-05-16T07:47:37.827Z,4.45
2023-05-16T07:50:07.698Z,2.92
2023-05-16T07:52:35.480Z,2.95
2023-05-16T07:55:03.287Z,3.08
2023-05-16T07:57:31.743Z,3.10
2023-05-16T08:00:00.953Z,3.53
2023-05-16T08:02:30.851Z,2.90
2023-05-16T08:04:59.095Z,3.47
2023-05-16T08:07:27.186Z,3.40
2023-05-16T08:09:54.891Z,3.83
2023-05-16T08:12:22.706Z,3.15
2023-05-16T08:14:50.498Z,3.83
2023-05-16T08:17:19.640Z,3.80
2023-05-16T08:19:47.399Z,3.25
2023-05-16T08:22:15.262Z,3.92
2023-05-16T08:24:43.061Z,3.70
2023-05-16T08:27:12.376Z,3.95
2023-05-16T08:29:40.130Z,3.72
2023-05-16T08:32:09.903Z,3.97
2023-05-16T08:34:38.966Z,4.10
2023-05-16T08:37:06.800Z,4.05
2023-05-16T08:39:34.845Z,4.53
2023-05-16T08:42:03.532Z,4.10
2023-05-16T08:44:31.342Z,4.93
2023-05-16T08:47:12.649Z,4.82
2023-05-16T08:49:45.346Z,3.90
2023-05-16T08:52:15.324Z,4.30
2023-05-16T08:54:44.312Z,4.07
2023-05-16T08:57:12.337Z,4.50
2023-05-16T08:59:41.647Z,4.68
2023-05-16T09:02:10.197Z,4.20
2023-05-16T09:04:39.583Z,5.15
2023-05-16T09:07:08.839Z,4.43
2023-05-16T09:09:36.786Z,4.50
2023-05-16T09:12:04.885Z,4.57
2023-05-16T09:14:32.686Z,4.28
2023-05-16T09:17:12.119Z,4.40
2023-05-16T09:19:41.436Z,4.65
2023-05-16T09:22:14.910Z,4.95
2023-05-16T09:24:44.369Z,4.40
2023-05-16T09:27:15.065Z,4.95
2023-05-16T09:29:43.719Z,4.95
2023-05-16T09:32:14.673Z,4.70
2023-05-16T09:34:46.046Z,5.03
2023-05-16T09:37:15.871Z,4.65
2023-05-16T09:39:49.240Z,5.55
2023-05-16T09:42:18.421Z,4.57
2023-05-16T09:44:48.424Z,5.13
2023-05-16T09:47:17.174Z,5.43
2023-05-16T09:49:48.984Z,4.63
2023-05-16T09:52:18.246Z,5.22
2023-05-16T09:54:49.824Z,4.85
2023-05-16T09:57:20.342Z,4.93
2023-05-16T09:59:48.667Z,4.18
2023-05-16T10:02:17.657Z,3.95
2023-05-16T10:04:46.465Z,5.70
2023-05-16T10:07:14.850Z,4.75
2023-05-16T10:09:46.158Z,4.95
2023-05-16T10:12:16.282Z,4.72
2023-05-16T10:14:49.885Z,4.65
2023-05-16T10:17:19.578Z,5.05
2023-05-16T10:19:49.508Z,4.78
2023-05-16T10:22:18.894Z,4.13
2023-05-16T10:24:55.859Z,4.88
2023-05-16T10:27:25.850Z,4.55
2023-05-16T10:29:55.313Z,4.90
2023-05-16T10:32:25.760Z,5.05
2023-05-16T10:34:55.603Z,4.72
2023-05-16T10:37:25.038Z,4.90
2023-05-16T10:39:55.108Z,5.65
2023-05-16T10:42:23.046Z,5.13
2023-05-16T10:45:04.933Z,4.85
2023-05-16T10:47:34.829Z,4.93
2023-05-16T10:50:03.148Z,5.63
2023-05-16T10:52:35.343Z,4.97
2023-05-16T10:55:05.612Z,5.15
2023-05-16T10:57:36.616Z,4.80
2023-05-16T11:00:22.630Z,5.50
2023-05-16T11:02:50.696Z,4.90
2023-05-16T11:05:20.480Z,3.97
2023-05-16T11:08:05.776Z,2.92
2023-05-16T11:10:34.868Z,2.80
2023-05-16T11:13:09.340Z,3.38
2023-05-16T11:15:37.126Z,2.75
2023-05-16T11:18:07.460Z,3.38
2023-05-16T11:20:37.492Z,3.67
2023-05-16T11:23:26.871Z,3.05
2023-05-16T11:26:00.552Z,3.25
2023-05-16T11:28:30.217Z,3.75
2023-05-16T11:31:00.382Z,4.57
2023-05-16T11:33:29.788Z,3.80
2023-05-16T11:38:37.338Z,2.72
2023-05-16T11:41:10.012Z,3.10
2023-05-16T11:43:43.904Z,3.65
2023-05-16T11:46:16.152Z,4.20
2023-05-16T11:48:47.156Z,3.22
2023-05-16T11:51:18.773Z,3.53
2023-05-16T11:53:47.635Z,3.50
2023-05-16T11:56:17.072Z,3.10
2023-05-16T11:58:45.646Z,3.70
2023-05-16T12:01:13.482Z,3.65
2023-05-16T12:03:41.403Z,2.85
2023-05-16T12:06:10.061Z,2.83
2023-05-16T12:08:38.722Z,3.08
2023-05-16T12:11:07.283Z,3.10
2023-05-16T12:13:36.449Z,2.83
2023-05-16T12:16:04.357Z,2.72
2023-05-16T12:18:33.872Z,2.25
2023-05-16T12:21:01.821Z,2.45
2023-05-16T12:23:31.308Z,3.00
2023-05-16T12:26:01.513Z,2.90
2023-05-16T12:28:34.630Z,2.22
2023-05-16T12:31:03.837Z,1.98
2023-05-16T12:33:31.656Z,2.30
2023-05-16T12:36:01.649Z,1.85
2023-05-16T12:38:29.660Z,1.65
2023-05-16T12:41:00.075Z,2.35
2023-05-16T12:43:28.494Z,2.08
2023-05-16T12:45:58.867Z,2.15
2023-05-16T12:48:35.176Z,1.98
2023-05-16T12:51:13.784Z,2.17
2023-05-16T12:53:57.463Z,2.17
2023-05-16T12:56:33.847Z,2.20
2023-05-16T12:59:01.552Z,1.40
2023-05-16T13:01:29.356Z,1.75
2023-05-16T13:03:59.435Z,1.08
2023-05-16T13:06:28.447Z,1.70
2023-05-16T13:08:57.837Z,0.80
2023-05-16T13:11:26.130Z,1.25
2023-05-16T13:13:53.858Z,1.30
2023-05-16T13:16:21.982Z,1.10
2023-05-16T13:18:49.844Z,1.52
2023-05-16T13:21:18.994Z,1.80
2023-05-16T13:23:46.731Z,1.38
2023-05-16T13:26:14.510Z,1.52
2023-05-16T13:28:44.625Z,1.45
2023-05-16T13:31:12.443Z,1.40
2023-05-16T13:33:40.206Z,0.85
2023-05-16T13:36:09.678Z,1.13
2023-05-16T13:38:39.231Z,0.82
2023-05-16T13:41:07.177Z,1.10
2023-05-16T13:43:35.041Z,1.35
2023-05-16T13:46:04.040Z,1.17
2023-05-16T13:48:31.830Z,1.13
2023-05-16T13:50:59.662Z,1.25
2023-05-16T13:53:27.423Z,1.23
2023-05-16T13:55:56.659Z,1.33
2023-05-16T13:58:24.444Z,2.83
2023-05-16T14:00:53.048Z,2.03
2023-05-16T14:03:21.322Z,1.35
2023-05-16T14:05:49.550Z,1.48
2023-05-16T14:08:17.385Z,1.60
2023-05-16T14:10:45.611Z,1.42
2023-05-16T14:13:14.639Z,1.42
2023-05-16T14:15:42.382Z,1.90
2023-05-16T14:18:10.259Z,1.90
2023-05-16T14:20:38.091Z,2.00
2023-05-16T14:23:05.976Z,2.03
2023-05-16T14:25:33.809Z,1.80
2023-05-16T14:28:01.623Z,2.15
2023-05-16T14:30:31.517Z,2.65
2023-05-16T14:32:59.475Z,2.63
2023-05-16T14:35:27.548Z,1.60
2023-05-16T14:37:56.075Z,2.05
2023-05-16T14:40:24.027Z,2.28
2023-05-16T14:42:52.184Z,2.08
2023-05-16T14:45:20.002Z,2.20
2023-05-16T14:47:49.175Z,2.03
2023-05-16T14:50:17.206Z,1.90
2023-05-16T14:52:45.015Z,1.85
2023-05-16T14:55:12.783Z,2.45
2023-05-16T14:57:42.710Z,2.78
2023-05-16T15:00:13.689Z,1.67
2023-05-16T15:02:41.554Z,1.85
2023-05-16T15:05:10.964Z,2.55
2023-05-16T15:07:38.848Z,1.88
2023-05-16T15:10:08.485Z,2.63
2023-05-16T15:12:36.653Z,1.92
2023-05-16T15:15:05.386Z,2.15
2023-05-16T15:17:33.289Z,2.10
2023-05-16T15:20:01.221Z,2.65
2023-05-16T15:22:31.061Z,2.10
2023-05-16T15:24:58.941Z,2.22
2023-05-16T15:27:27.128Z,2.70
2023-05-16T15:29:55.326Z,2.70
2023-05-16T15:32:23.700Z,2.60
2023-05-16T15:34:51.530Z,2.72
2023-05-16T15:37:19.337Z,2.58
2023-05-16T15:39:48.858Z,2.60
2023-05-16T15:42:16.741Z,3.85
2023-05-16T15:44:44.707Z,3.25
2023-05-16T15:47:12.756Z,2.90
2023-05-16T15:49:40.973Z,2.88
2023-05-16T15:52:09.166Z,2.78
2023-05-16T15:54:37.553Z,2.92
2023-05-16T15:57:07.106Z,3.50
2023-05-16T15:59:35.043Z,3.58
2023-05-16T16:02:05.249Z,2.90
2023-05-16T16:04:33.578Z,2.55
2023-05-16T16:07:01.343Z,3.20
2023-05-16T16:09:29.208Z,2.92
2023-05-16T16:11:56.994Z,3.20
2023-05-16T16:14:26.721Z,3.33
2023-05-16T16:16:54.470Z,2.92
2023-05-16T16:19:22.379Z,3.22
2023-05-16T16:21:50.436Z,2.97
2023-05-16T16:24:19.983Z,3.10
2023-05-16T16:26:47.883Z,3.92
2023-05-16T16:29:15.785Z,3.33
2023-05-16T16:31:44.946Z,2.75
2023-05-16T16:34:12.800Z,2.95
2023-05-16T16:36:40.710Z,3.30
2023-05-16T16:39:10.202Z,3.42
2023-05-16T16:41:38.115Z,3.80
2023-05-16T16:44:06.316Z,3.50
2023-05-16T16:46:34.190Z,3.40
2023-05-16T16:49:04.204Z,3.38
2023-05-16T16:51:34.158Z,3.00
2023-05-16T16:54:01.983Z,3.50
2023-05-16T16:56:30.120Z,3.25
2023-05-16T16:58:57.935Z,3.60
2023-05-16T17:01:29.549Z,3.10
2023-05-16T17:03:57.909Z,2.80
2023-05-16T17:06:28.553Z,3.00
2023-05-16T17:08:56.521Z,2.78
2023-05-16T17:11:24.378Z,2.63
2023-05-16T17:13:52.157Z,2.75
2023-05-16T17:16:19.957Z,2.60
2023-05-16T17:18:47.967Z,2.22
2023-05-16T17:21:16.022Z,3.13
2023-05-16T17:23:45.109Z,2.70
2023-05-16T17:26:13.537Z,2.55
2023-05-16T17:28:41.626Z,2.15
2023-05-16T17:31:09.418Z,2.58
2023-05-16T17:33:37.224Z,2.55
2023-05-16T17:36:05.994Z,2.58
2023-05-16T17:38:34.254Z,3.08
2023-05-16T17:41:04.289Z,3.05
2023-05-16T17:43:32.147Z,2.53
2023-05-16T17:45:59.952Z,2.80
2023-05-16T17:48:28.217Z,2.05
2023-05-16T17:50:56.052Z,1.95
2023-05-16T17:53:23.884Z,2.53
2023-05-16T17:55:51.810Z,2.40
2023-05-16T17:58:20.942Z,1.83
2023-05-16T18:00:49.290Z,2.50
2023-05-16T18:03:17.680Z,2.35
2023-05-16T18:05:45.677Z,2.28
2023-05-16T18:08:13.594Z,2.50
2023-05-16T18:10:51.132Z,1.85
2023-05-16T18:13:22.347Z,2.22
2023-05-16T18:15:50.273Z,1.27
2023-05-16T18:18:18.560Z,2.33
2023-05-16T18:20:47.207Z,1.55
2023-05-16T18:23:15.159Z,1.83
2023-05-16T18:25:43.120Z,1.25
2023-05-16T18:28:10.898Z,2.00
2023-05-16T18:30:40.086Z,2.20
2023-05-16T18:33:08.206Z,2.05
2023-05-16T18:35:36.109Z,1.80
2023-05-16T18:38:04.136Z,3.50
2023-05-16T18:40:34.327Z,3.05
2023-05-16T18:43:02.190Z,2.78
2023-05-16T18:45:30.324Z,1.77
2023-05-16T18:47:59.675Z,1.77
2023-05-16T18:50:28.178Z,2.25
2023-05-16T18:52:57.353Z,1.65
2023-05-16T18:55:25.427Z,1.95
2023-05-16T18:57:53.276Z,2.15
2023-05-16T19:00:30.026Z,1.85
2023-05-16T19:02:59.125Z,1.85
2023-05-16T19:05:27.460Z,1.77
2023-05-16T19:07:55.815Z,1.80
2023-05-16T19:10:25.104Z,2.03
2023-05-16T19:12:52.937Z,1.23
2023-05-16T19:15:20.681Z,1.50
2023-05-16T19:17:48.491Z,1.67
2023-05-16T19:20:17.998Z,1.98
2023-05-16T19:22:45.974Z,2.00
2023-05-16T19:25:14.164Z,1.38
2023-05-16T19:27:42.829Z,1.80
2023-05-16T19:30:11.875Z,2.20
2023-05-16T19:32:40.094Z,1.40
2023-05-16T19:35:08.925Z,2.03
2023-05-16T19:37:38.053Z,1.90
2023-05-16T19:40:07.208Z,2.50
2023-05-16T19:42:35.076Z,1.98
2023-05-16T19:45:03.680Z,1.70
2023-05-16T19:47:31.592Z,1.48
2023-05-16T19:49:59.435Z,2.55
2023-05-16T19:52:27.212Z,3.65
2023-05-16T19:54:56.444Z,2.75
2023-05-16T19:57:24.390Z,2.50
2023-05-16T19:59:52.262Z,2.05
2023-05-16T20:02:21.314Z,2.60
2023-05-16T20:04:51.373Z,1.70
2023-05-16T20:07:19.258Z,3.00
2023-05-16T20:09:47.134Z,1.95
2023-05-16T20:12:16.415Z,2.10
2023-05-16T20:14:44.276Z,2.65
2023-05-16T20:17:12.058Z,2.70
2023-05-16T20:19:43.709Z,2.28
2023-05-16T20:22:11.712Z,1.55
2023-05-16T20:24:39.600Z,1.77
2023-05-16T20:27:07.376Z,2.20
2023-05-16T20:29:36.584Z,1.77
2023-05-16T20:32:04.933Z,2.05
2023-05-16T20:34:32.713Z,2.30
2023-05-16T20:37:00.449Z,2.05
2023-05-16T20:39:28.819Z,2.03
2023-05-16T20:41:56.580Z,2.65
2023-05-16T20:44:24.321Z,1.92
2023-05-16T20:46:53.626Z,2.25
2023-05-16T20:49:30.037Z,2.50
2023-05-16T20:51:57.787Z,2.20
2023-05-16T20:54:26.215Z,1.98
2023-05-16T20:56:53.962Z,1.42
2023-05-16T20:59:21.753Z,2.17
2023-05-16T21:01:49.486Z,1.98
2023-05-16T21:04:19.415Z,2.15
2023-05-16T21:06:47.735Z,1.88
2023-05-16T21:09:15.727Z,1.48
2023-05-16T21:11:43.480Z,1.40
2023-05-16T21:14:11.245Z,1.90
2023-05-16T21:16:39.004Z,1.88
2023-05-16T21:19:06.949Z,1.48
2023-05-16T21:21:36.151Z,2.92
2023-05-16T21:24:05.345Z,2.60
2023-05-16T21:26:33.207Z,1.85
2023-05-16T21:29:01.167Z,1.98
2023-05-16T21:31:29.047Z,1.98
2023-05-16T21:33:56.820Z,1.75
2023-05-16T21:36:24.658Z,1.20
2023-05-16T21:38:53.725Z,1.05
2023-05-16T21:41:21.535Z,1.75
2023-05-16T21:43:52.241Z,1.33
2023-05-16T21:46:20.106Z,1.45
2023-05-16T21:48:48.031Z,1.17
2023-05-16T21:51:15.960Z,1.48
2023-05-16T21:53:45.094Z,1.75
2023-05-16T21:56:14.188Z,1.30
2023-05-16T21:58:42.380Z,1.90
2023-05-16T22:01:10.203Z,2.33
2023-05-16T22:03:38.244Z,2.03
2023-05-16T22:06:06.894Z,1.33
2023-05-16T22:08:34.623Z,1.20
2023-05-16T22:11:02.600Z,1.25
2023-05-16T22:13:31.700Z,2.20
2023-05-16T22:16:04.359Z,1.45
2023-05-16T22:18:33.216Z,2.08
2023-05-16T22:21:01.776Z,1.42
2023-05-16T22:23:29.650Z,2.40
2023-05-16T22:25:57.547Z,1.20
2023-05-16T22:28:26.060Z,1.63
2023-05-16T22:30:55.217Z,1.20
2023-05-16T22:33:23.954Z,1.90
2023-05-16T22:35:51.892Z,2.55
2023-05-16T22:38:19.630Z,3.28
2023-05-16T22:40:47.421Z,3.22
2023-05-16T22:43:15.168Z,2.38
2023-05-16T22:45:42.932Z,1.77
2023-05-16T22:48:12.153Z,1.10
2023-05-16T22:50:40.022Z,1.17
2023-05-16T22:53:07.769Z,1.45
2023-05-16T22:55:35.532Z,1.35
2023-05-16T22:58:03.241Z,1.55
2023-05-16T23:00:31.087Z,1.15
2023-05-16T23:02:58.939Z,1.02
2023-05-16T23:05:28.446Z,1.40
2023-05-16T23:07:56.344Z,1.70
2023-05-16T23:10:24.158Z,1.65
2023-05-16T23:12:52.211Z,1.35
2023-05-16T23:15:19.970Z,1.25
2023-05-16T23:17:47.782Z,1.30
2023-05-16T23:20:15.996Z,1.38
2023-05-16T23:22:45.082Z,1.05
2023-05-16T23:25:12.856Z,1.17
2023-05-16T23:27:40.659Z,1.42
2023-05-16T23:30:11.312Z,0.75
2023-05-16T23:32:39.101Z,1.20
2023-05-16T23:35:08.165Z,1.95
2023-05-16T23:37:35.926Z,1.02
2023-05-16T23:40:06.410Z,0.98
2023-05-16T23:42:34.182Z,1.25
2023-05-16T23:45:01.910Z,1.40
2023-05-16T23:47:30.564Z,0.82
2023-05-16T23:49:58.386Z,1.05
2023-05-16T23:52:26.146Z,1.38
2023-05-16T23:54:53.923Z,1.00
2023-05-16T23:57:23.046Z,1.13
2023-05-16T23:59:51.040Z,1.17
